createdAt,value
2023-12-27T00:00:16.953Z,100520.69
2023-12-27T00:05:19.983Z,100534.88
2023-12-27T00:10:24.211Z,100548.25
2023-12-27T00:15:27.076Z,100556.03
2023-12-27T00:20:29.935Z,100559.47
2023-12-27T00:25:34.154Z,100553.81
2023-12-27T00:30:37.123Z,100569.47
2023-12-27T00:35:40.028Z,100566.28
2023-12-27T00:40:45.373Z,100577.13
2023-12-27T00:45:48.207Z,100589.94
2023-12-27T00:50:51.001Z,100588.47
2023-12-27T00:55:56.411Z,100594.25
2023-12-27T01:00:59.266Z,100605.09
2023-12-27T01:06:02.240Z,100608.16
2023-12-27T01:11:07.084Z,100613.09
2023-12-27T01:16:10.258Z,100624.19
2023-12-27T01:21:15.115Z,100630.97
2023-12-27T01:26:19.373Z,100633.31
2023-12-27T01:31:22.280Z,100642.78
2023-12-27T01:36:25.182Z,100652.22
2023-12-27T01:41:29.395Z,100654.41
2023-12-27T01:46:32.871Z,100646.00
2023-12-27T01:51:36.770Z,100645.50
2023-12-27T01:56:45.358Z,100653.88
2023-12-27T02:01:48.860Z,100672.94
2023-12-27T02:06:53.129Z,100676.03
2023-12-27T02:11:57.330Z,100682.66
2023-12-27T02:17:01.885Z,100690.38
2023-12-27T02:22:07.060Z,100685.19
2023-12-27T02:27:11.337Z,100693.56
2023-12-27T02:32:14.354Z,100689.47
2023-12-27T02:37:17.193Z,100688.09
2023-12-27T02:42:21.392Z,100678.34
2023-12-27T02:47:24.253Z,100679.56
2023-12-27T02:52:27.870Z,100681.53
2023-12-27T02:57:32.113Z,100684.47
2023-12-27T03:02:35.122Z,100680.09
2023-12-27T03:07:37.893Z,100682.09
2023-12-27T03:12:42.134Z,100683.16
2023-12-27T03:17:45.055Z,100689.56
2023-12-27T03:22:48.107Z,100684.38
2023-12-27T03:27:52.263Z,100685.47
2023-12-27T03:32:55.219Z,100687.31
2023-12-27T03:37:58.383Z,100686.44
2023-12-27T03:43:02.686Z,100693.69
2023-12-27T03:48:06.341Z,100690.34
2023-12-27T03:53:09.444Z,100685.06
2023-12-27T03:58:13.606Z,100688.09
2023-12-27T04:03:17.054Z,100685.41
2023-12-27T04:08:19.947Z,100699.91
2023-12-27T04:13:24.102Z,100699.25
2023-12-27T04:18:27.118Z,100703.91
2023-12-27T04:23:30.030Z,100695.94
2023-12-27T04:28:34.436Z,100695.16
2023-12-27T04:33:37.550Z,100706.09
2023-12-27T04:38:40.881Z,100713.47
2023-12-27T04:43:45.023Z,100714.41
2023-12-27T04:48:47.999Z,100706.56
2023-12-27T04:53:50.944Z,100704.84
2023-12-27T04:58:55.182Z,100722.03
2023-12-27T05:03:58.183Z,100723.97
2023-12-27T05:09:05.247Z,100717.69
2023-12-27T05:14:09.478Z,100724.19
2023-12-27T05:19:12.334Z,100718.88
2023-12-27T05:24:15.233Z,100729.81
2023-12-27T05:29:19.421Z,100742.59
2023-12-27T05:34:22.569Z,100743.56
2023-12-27T05:39:25.518Z,100737.38
2023-12-27T05:44:29.694Z,100748.19
2023-12-27T05:49:32.585Z,100745.75
2023-12-27T05:54:35.519Z,100754.91
2023-12-27T05:59:39.864Z,100750.38
2023-12-27T06:04:42.778Z,100756.75
2023-12-27T06:09:45.558Z,100757.84
2023-12-27T06:14:49.698Z,100748.00
2023-12-27T06:19:52.525Z,100745.41
2023-12-27T06:24:55.340Z,100741.84
2023-12-27T06:29:59.542Z,100745.53
2023-12-27T06:35:02.443Z,100751.03
2023-12-27T06:40:06.628Z,100756.75
2023-12-27T06:45:12.025Z,100764.84
2023-12-27T06:50:15.094Z,100760.50
2023-12-27T06:55:17.999Z,100763.44
2023-12-27T07:00:22.586Z,100765.28
2023-12-27T07:05:25.682Z,100766.25
2023-12-27T07:10:28.602Z,100768.19
2023-12-27T07:15:32.887Z,100767.31
2023-12-27T07:20:35.781Z,100759.34
2023-12-27T07:25:38.745Z,100765.72
2023-12-27T07:30:43.278Z,100761.38
2023-12-27T07:35:48.133Z,100759.75
2023-12-27T07:40:50.981Z,100770.66
2023-12-27T07:45:55.159Z,100776.94
2023-12-27T07:50:58.070Z,100777.91
2023-12-27T07:56:01.121Z,100781.69
2023-12-27T08:01:05.851Z,100792.50
2023-12-27T08:06:09.199Z,100797.63
2023-12-27T08:11:12.150Z,100814.56
2023-12-27T08:16:16.353Z,100824.09
2023-12-27T08:21:19.348Z,100828.41
2023-12-27T08:26:22.213Z,100813.94
2023-12-27T08:31:26.480Z,100805.00
2023-12-27T08:36:30.829Z,100800.91
2023-12-27T08:41:34.016Z,100804.53
2023-12-27T08:46:38.191Z,100805.66
2023-12-27T08:51:41.159Z,100804.19
2023-12-27T08:56:44.033Z,100816.31
2023-12-27T09:01:48.782Z,100817.72
2023-12-27T09:06:51.762Z,100810.91
2023-12-27T09:11:54.642Z,100805.22
2023-12-27T09:16:58.857Z,100806.75
2023-12-27T09:22:03.862Z,100800.25
2023-12-27T09:27:06.965Z,100792.81
2023-12-27T09:32:11.459Z,100787.28
2023-12-27T09:37:14.450Z,100777.25
2023-12-27T09:42:18.426Z,100777.34
2023-12-27T09:47:25.598Z,100779.09
2023-12-27T09:52:30.875Z,100779.41
2023-12-27T09:57:35.168Z,100771.19
2023-12-27T10:02:43.367Z,100765.63
2023-12-27T10:07:46.690Z,100757.75
2023-12-27T10:12:51.378Z,100750.75
2023-12-27T10:17:55.817Z,100754.00
2023-12-27T10:22:58.814Z,100751.84
2023-12-27T10:28:01.784Z,100749.78
2023-12-27T10:33:06.974Z,100733.50
2023-12-27T10:38:10.006Z,100725.84
2023-12-27T10:43:12.831Z,100715.66
2023-12-27T10:48:18.323Z,100698.50
2023-12-27T10:53:22.154Z,100684.03
2023-12-27T10:58:25.603Z,100681.22
2023-12-27T11:03:31.839Z,100657.63
2023-12-27T11:08:37.034Z,100644.91
2023-12-27T11:13:40.738Z,100647.50
2023-12-27T11:18:46.958Z,100638.19
2023-12-27T11:23:50.005Z,100623.59
2023-12-27T11:28:52.917Z,100624.00
2023-12-27T11:33:57.591Z,100620.44
2023-12-27T11:39:04.417Z,100612.34
2023-12-27T11:44:09.337Z,100611.59
2023-12-27T11:49:20.735Z,100606.94
2023-12-27T11:54:25.513Z,100591.59
2023-12-27T11:59:30.062Z,100581.75
2023-12-27T12:04:46.023Z,100568.59
2023-12-27T12:09:48.965Z,100559.63
2023-12-27T12:14:56.234Z,100556.06
2023-12-27T12:20:01.955Z,100542.44
2023-12-27T12:25:08.854Z,100540.38
2023-12-27T12:30:12.497Z,100535.63
2023-12-27T12:35:17.437Z,100535.28
2023-12-27T12:40:20.465Z,100512.78
2023-12-27T12:45:23.704Z,100508.13
2023-12-27T12:50:27.968Z,100493.53
2023-12-27T12:55:31.353Z,100497.09
2023-12-27T13:00:34.415Z,100499.78
2023-12-27T13:05:42.435Z,100495.19
2023-12-27T13:10:46.099Z,100484.47
2023-12-27T13:15:49.106Z,100470.19
2023-12-27T13:20:54.044Z,100448.56
2023-12-27T13:25:56.915Z,100427.81
2023-12-27T13:30:59.861Z,100430.41
2023-12-27T13:36:04.314Z,100417.00
2023-12-27T13:41:07.282Z,100406.19
2023-12-27T13:46:11.228Z,100391.63
2023-12-27T13:51:17.167Z,100366.34
2023-12-27T13:56:20.376Z,100351.84
2023-12-27T14:01:23.443Z,100338.09
2023-12-27T14:06:27.784Z,100334.41
2023-12-27T14:11:30.733Z,100325.44
2023-12-27T14:16:33.902Z,100312.66
2023-12-27T14:21:38.421Z,100321.63
2023-12-27T14:26:43.388Z,100324.22
2023-12-27T14:31:47.941Z,100328.03
2023-12-27T14:36:52.179Z,100327.03
2023-12-27T14:41:56.773Z,100321.00
2023-12-27T14:46:59.659Z,100317.69
2023-12-27T14:52:04.440Z,100326.84
2023-12-27T14:57:07.259Z,100330.53
2023-12-27T15:02:10.347Z,100312.75
2023-12-27T15:07:14.618Z,100312.97
2023-12-27T15:12:17.781Z,100303.88
2023-12-27T15:17:20.612Z,100307.81
2023-12-27T15:22:24.725Z,100316.78
2023-12-27T15:27:27.680Z,100289.13
2023-12-27T15:32:30.670Z,100280.28
2023-12-27T15:37:34.838Z,100279.31
2023-12-27T15:42:37.639Z,100280.16
2023-12-27T15:47:40.664Z,100269.50
2023-12-27T15:52:44.927Z,100274.13
2023-12-27T15:57:47.825Z,100250.81
2023-12-27T16:02:50.931Z,100236.31
2023-12-27T16:07:55.208Z,100230.06
2023-12-27T16:12:58.184Z,100233.63
2023-12-27T16:18:01.920Z,100204.03
2023-12-27T16:23:06.959Z,100204.03
2023-12-27T16:28:10.331Z,100202.19
2023-12-27T16:33:13.461Z,100180.44
2023-12-27T16:38:17.794Z,100203.19
2023-12-27T16:43:22.272Z,100197.78
2023-12-27T16:48:25.320Z,100168.91
2023-12-27T16:53:29.683Z,100169.53
2023-12-27T16:58:32.530Z,100160.59
2023-12-27T17:03:35.626Z,100142.41
2023-12-27T17:08:39.963Z,100141.53
2023-12-27T17:13:42.801Z,100120.16
2023-12-27T17:18:45.828Z,100106.78
2023-12-27T17:23:50.324Z,100104.22
2023-12-27T17:28:53.275Z,100106.44
2023-12-27T17:33:56.201Z,100094.63
2023-12-27T17:39:00.618Z,100094.63
2023-12-27T17:44:04.884Z,100078.56
2023-12-27T17:49:08.116Z,100072.41
2023-12-27T17:54:12.564Z,100063.59
2023-12-27T17:59:15.484Z,100064.81
2023-12-27T18:04:20.120Z,100060.88
2023-12-27T18:09:25.665Z,100073.03
2023-12-27T18:14:28.496Z,100056.94
2023-12-27T18:19:31.458Z,100055.94
2023-12-27T18:24:38.693Z,100069.84
2023-12-27T18:29:42.127Z,100058.28
2023-12-27T18:34:45.516Z,100072.75
2023-12-27T18:39:49.876Z,100071.25
2023-12-27T18:44:52.806Z,100064.34
2023-12-27T18:49:55.736Z,100048.34
2023-12-27T18:55:01.299Z,100051.25
2023-12-27T19:00:05.675Z,100029.84
2023-12-27T19:05:09.596Z,100024.88
2023-12-27T19:10:13.949Z,100008.19
2023-12-27T19:15:17.159Z,100000.00
2023-12-27T19:20:20.651Z,99998.59
2023-12-27T19:25:24.861Z,99985.38
2023-12-27T19:30:28.339Z,99978.44
2023-12-27T19:35:31.266Z,99983.47
2023-12-27T19:40:35.470Z,99982.06
2023-12-27T19:45:38.332Z,99960.47
2023-12-27T19:50:41.982Z,99958.75
2023-12-27T19:55:46.219Z,99954.66
2023-12-27T20:00:50.003Z,99947.00
2023-12-27T20:05:53.374Z,99953.72
2023-12-27T20:10:57.690Z,99936.06
2023-12-27T20:16:00.605Z,99934.66
2023-12-27T20:21:05.076Z,99942.22
2023-12-27T20:26:09.386Z,99943.66
2023-12-27T20:31:12.431Z,99943.25
2023-12-27T20:36:15.535Z,99931.09
2023-12-27T20:41:21.521Z,99926.28
2023-12-27T20:46:24.442Z,99924.16
2023-12-27T20:51:27.419Z,99912.16
2023-12-27T20:56:31.555Z,99919.28
2023-12-27T21:01:39.566Z,99919.72
2023-12-27T21:06:42.624Z,99909.72
2023-12-27T21:11:46.796Z,99902.34
2023-12-27T21:16:49.724Z,99910.00
2023-12-27T21:21:52.666Z,99920.00
2023-12-27T21:26:56.857Z,99924.84
2023-12-27T21:31:59.776Z,99920.00
2023-12-27T21:37:02.628Z,99928.59
2023-12-27T21:42:07.108Z,99932.16
2023-12-27T21:47:09.914Z,99919.47
2023-12-27T21:52:12.741Z,99921.19
2023-12-27T21:57:16.941Z,99911.75
2023-12-27T22:02:19.896Z,99907.03
2023-12-27T22:07:24.223Z,99908.63
2023-12-27T22:12:28.552Z,99897.19
2023-12-27T22:17:31.400Z,99896.63
2023-12-27T22:22:34.246Z,99888.75
2023-12-27T22:27:38.691Z,99875.91
2023-12-27T22:32:41.770Z,99872.47
2023-12-27T22:37:44.656Z,99853.22
2023-12-27T22:42:49.009Z,99854.59
2023-12-27T22:47:51.837Z,99846.34
2023-12-27T22:52:54.949Z,99827.03
2023-12-27T22:57:59.499Z,99799.47
2023-12-27T23:03:02.640Z,99811.00
2023-12-27T23:08:05.914Z,99794.34
2023-12-27T23:13:10.083Z,99788.63
2023-12-27T23:18:13.670Z,99776.72
2023-12-27T23:23:16.704Z,99764.31
2023-12-27T23:28:21.086Z,99754.88
2023-12-27T23:33:26.233Z,99732.84
2023-12-27T23:38:29.311Z,99735.25
2023-12-27T23:43:33.531Z,99750.06
2023-12-27T23:48:36.509Z,99744.84
2023-12-27T23:53:39.511Z,99742.50
2023-12-27T23:58:44.468Z,99735.13
